createdAt,value
2023-05-20T00:00:50.036Z,3.03
2023-05-20T00:03:38.985Z,2.80
2023-05-20T00:06:30.989Z,3.53
2023-05-20T00:09:45.556Z,3.50
2023-05-20T00:12:35.512Z,2.57
2023-05-20T00:15:16.594Z,6.93
2023-05-20T00:18:01.195Z,4.43
2023-05-20T00:20:33.938Z,3.80
2023-05-20T00:23:12.130Z,5.80
2023-05-20T00:26:20.478Z,2.83
2023-05-20T00:29:06.898Z,3.03
2023-05-20T00:31:40.517Z,5.33
2023-05-20T00:34:17.071Z,3.67
2023-05-20T00:36:54.252Z,2.50
2023-05-20T00:39:27.484Z,3.33
2023-05-20T00:42:33.761Z,2.40
2023-05-20T00:45:15.549Z,3.60
2023-05-20T00:48:12.984Z,3.83
2023-05-20T00:51:10.130Z,4.30
2023-05-20T00:53:53.391Z,8.10
2023-05-20T00:56:37.934Z,4.27
2023-05-20T00:59:13.488Z,4.57
2023-05-20T01:01:56.851Z,2.67
2023-05-20T01:04:29.808Z,5.33
2023-05-20T01:07:24.819Z,2.73
2023-05-20T01:09:56.980Z,3.20
2023-05-20T01:12:54.644Z,3.20
2023-05-20T01:15:56.610Z,2.73
2023-05-20T01:18:45.971Z,3.37
2023-05-20T01:21:31.256Z,2.70
2023-05-20T01:24:09.885Z,3.53
2023-05-20T01:27:06.068Z,3.13
2023-05-20T01:30:06.195Z,5.00
2023-05-20T01:33:04.942Z,3.37
2023-05-20T01:35:41.534Z,3.77
2023-05-20T01:38:13.746Z,3.63
2023-05-20T01:41:25.500Z,5.90
2023-05-20T01:44:11.194Z,4.70
2023-05-20T01:47:02.093Z,3.47
2023-05-20T01:49:55.737Z,4.17
2023-05-20T01:52:29.670Z,3.30
2023-05-20T01:55:21.280Z,3.83
2023-05-20T01:58:13.420Z,4.37
2023-05-20T02:01:07.604Z,4.30
2023-05-20T02:03:50.810Z,3.10
2023-05-20T02:06:54.066Z,3.67
2023-05-20T02:09:46.189Z,3.10
2023-05-20T02:12:26.644Z,5.17
2023-05-20T02:15:08.750Z,3.70
2023-05-20T02:17:54.498Z,3.83
2023-05-20T02:20:33.076Z,4.07
2023-05-20T02:23:38.217Z,4.07
2023-05-20T02:26:09.137Z,3.63
2023-05-20T02:28:52.365Z,3.63
2023-05-20T02:31:40.367Z,3.70
2023-05-20T02:34:26.508Z,4.70
2023-05-20T02:37:41.908Z,4.77
2023-05-20T02:40:15.280Z,3.00
2023-05-20T02:42:57.491Z,3.20
2023-05-20T02:45:44.902Z,3.77
2023-05-20T02:48:52.832Z,5.30
2023-05-20T02:51:36.211Z,4.57
2023-05-20T02:54:16.504Z,4.00
2023-05-20T02:56:48.346Z,3.23
2023-05-20T02:59:33.016Z,5.03
2023-05-20T03:02:03.828Z,3.40
2023-05-20T03:04:41.402Z,3.97
2023-05-20T03:07:24.698Z,4.80
2023-05-20T03:10:20.509Z,2.87
2023-05-20T03:13:10.316Z,3.40
2023-05-20T03:16:07.217Z,4.63
2023-05-20T03:18:58.427Z,4.53
2023-05-20T03:22:21.818Z,3.70
2023-05-20T03:25:01.251Z,4.43
2023-05-20T03:27:43.308Z,5.20
2023-05-20T03:30:28.675Z,4.33
2023-05-20T03:33:11.497Z,3.60
2023-05-20T03:36:07.766Z,4.60
2023-05-20T03:38:40.092Z,4.87
2023-05-20T03:41:12.604Z,3.40
2023-05-20T03:44:10.271Z,4.57
2023-05-20T03:46:51.992Z,3.73
2023-05-20T03:49:42.439Z,3.67
2023-05-20T03:52:38.353Z,3.70
2023-05-20T03:55:46.209Z,5.77
2023-05-20T03:58:31.889Z,4.00
2023-05-20T04:01:14.617Z,3.73
2023-05-20T04:04:13.842Z,3.73
2023-05-20T04:06:58.133Z,4.30
2023-05-20T04:09:39.529Z,3.83
2023-05-20T04:12:37.139Z,3.47
2023-05-20T04:15:30.120Z,3.70
2023-05-20T04:18:12.094Z,4.00
2023-05-20T04:21:08.367Z,4.47
2023-05-20T04:23:49.875Z,3.27
2023-05-20T04:26:31.283Z,6.97
2023-05-20T04:29:16.247Z,3.40
2023-05-20T04:32:27.252Z,5.63
2023-05-20T04:35:09.071Z,3.50
2023-05-20T04:37:52.030Z,5.60
2023-05-20T04:40:33.815Z,3.53
2023-05-20T04:43:17.327Z,5.77
2023-05-20T04:46:07.230Z,4.77
2023-05-20T04:48:39.613Z,4.53
2023-05-20T04:51:46.167Z,5.27
2023-05-20T04:54:20.700Z,4.20
2023-05-20T04:57:17.562Z,4.47
2023-05-20T05:00:09.603Z,4.33
2023-05-20T05:03:11.557Z,3.87
2023-05-20T05:05:53.113Z,4.03
2023-05-20T05:08:36.344Z,3.83
2023-05-20T05:11:16.861Z,3.27
2023-05-20T05:13:56.118Z,4.73
2023-05-20T05:16:39.654Z,3.70
2023-05-20T05:19:42.737Z,6.40
2023-05-20T05:22:26.297Z,5.23
2023-05-20T05:25:03.887Z,3.77
2023-05-20T05:27:44.561Z,4.00
2023-05-20T05:30:28.259Z,3.43
2023-05-20T05:33:00.250Z,4.03
2023-05-20T05:35:33.540Z,5.50
2023-05-20T05:38:19.033Z,4.13
2023-05-20T05:41:00.598Z,4.10
2023-05-20T05:43:51.334Z,4.57
2023-05-20T05:46:35.696Z,3.33
2023-05-20T05:49:24.908Z,4.37
2023-05-20T05:52:18.560Z,3.50
2023-05-20T05:55:00.298Z,6.23
2023-05-20T05:57:56.295Z,4.17
2023-05-20T06:00:52.025Z,3.80
2023-05-20T06:03:25.544Z,3.93
2023-05-20T06:06:15.907Z,4.03
2023-05-20T06:09:21.618Z,3.97
2023-05-20T06:11:56.305Z,4.47
2023-05-20T06:14:52.178Z,3.80
2023-05-20T06:17:26.404Z,5.03
2023-05-20T06:20:22.873Z,4.20
2023-05-20T06:23:19.273Z,4.77
2023-05-20T06:26:53.429Z,4.37
2023-05-20T06:29:44.693Z,4.27
2023-05-20T06:32:35.003Z,5.83
2023-05-20T06:35:06.081Z,4.87
2023-05-20T06:37:41.951Z,3.83
2023-05-20T06:40:24.114Z,3.93
2023-05-20T06:43:19.633Z,3.93
2023-05-20T06:46:06.617Z,4.10
2023-05-20T06:48:47.801Z,4.17
2023-05-20T06:51:33.727Z,4.00
2023-05-20T06:54:22.397Z,5.20
2023-05-20T06:57:26.795Z,4.30
2023-05-20T07:00:31.630Z,4.20
2023-05-20T07:03:05.267Z,5.57
2023-05-20T07:06:07.716Z,6.20
2023-05-20T07:08:44.983Z,4.53
2023-05-20T07:11:36.885Z,4.30
2023-05-20T07:14:18.260Z,4.17
2023-05-20T07:16:54.103Z,5.60
2023-05-20T07:19:30.654Z,5.03
2023-05-20T07:22:07.164Z,4.23
2023-05-20T07:25:05.609Z,4.83
2023-05-20T07:27:50.992Z,4.33
2023-05-20T07:30:29.643Z,5.23
2023-05-20T07:33:30.529Z,5.37
2023-05-20T07:36:21.004Z,4.50
2023-05-20T07:39:03.608Z,4.67
2023-05-20T07:41:48.204Z,6.13
2023-05-20T07:44:21.978Z,7.63
2023-05-20T07:46:56.677Z,4.80
2023-05-20T07:49:32.264Z,5.00
2023-05-20T07:52:18.485Z,4.73
2023-05-20T07:54:50.857Z,4.60
2023-05-20T07:57:28.042Z,4.23
2023-05-20T08:00:03.506Z,4.87
2023-05-20T08:02:52.436Z,4.57
2023-05-20T08:05:34.491Z,4.30
2023-05-20T08:08:14.397Z,4.40
2023-05-20T08:11:04.621Z,5.40
2023-05-20T08:13:50.666Z,5.57
2023-05-20T08:16:31.585Z,5.70
2023-05-20T08:19:08.649Z,5.97
2023-05-20T08:22:01.994Z,9.20
2023-05-20T08:24:36.735Z,7.23
2023-05-20T08:27:08.426Z,7.77
2023-05-20T08:29:39.342Z,5.03
2023-05-20T08:32:13.900Z,4.80
2023-05-20T08:34:49.600Z,6.37
2023-05-20T08:37:29.885Z,9.27
2023-05-20T08:40:12.255Z,5.20
2023-05-20T08:42:51.051Z,4.63
2023-05-20T08:45:37.772Z,4.77
2023-05-20T08:48:21.193Z,7.23
2023-05-20T08:51:11.807Z,5.97
2023-05-20T08:53:54.583Z,5.23
2023-05-20T08:56:49.458Z,5.40
2023-05-20T08:59:22.660Z,5.03
2023-05-20T09:02:02.200Z,6.73
2023-05-20T09:04:56.741Z,5.03
2023-05-20T09:07:38.033Z,5.67
2023-05-20T09:10:47.249Z,6.80
2023-05-20T09:13:32.637Z,6.60
2023-05-20T09:16:14.593Z,7.43
2023-05-20T09:18:48.231Z,5.47
2023-05-20T09:21:31.569Z,5.83
2023-05-20T09:24:16.083Z,4.80
2023-05-20T09:27:05.210Z,5.53
2023-05-20T09:29:37.707Z,5.07
2023-05-20T09:32:26.201Z,5.20
2023-05-20T09:35:03.254Z,6.27
2023-05-20T09:37:48.982Z,6.47
2023-05-20T09:40:36.963Z,7.27
2023-05-20T09:43:22.627Z,4.90
2023-05-20T09:46:02.194Z,5.80
2023-05-20T09:48:38.096Z,6.30
2023-05-20T09:51:23.189Z,5.13
2023-05-20T09:53:55.782Z,5.33
2023-05-20T09:56:38.687Z,5.07
2023-05-20T09:59:19.210Z,5.30
2023-05-20T10:02:07.102Z,5.33
2023-05-20T10:04:47.818Z,5.03
2023-05-20T10:08:12.224Z,4.87
2023-05-20T10:11:08.879Z,5.93
2023-05-20T10:14:20.509Z,7.07
2023-05-20T10:17:10.635Z,6.00
2023-05-20T10:19:51.780Z,5.37
2023-05-20T10:22:32.210Z,5.37
2023-05-20T10:25:14.716Z,5.30
2023-05-20T10:27:48.923Z,9.13
2023-05-20T10:30:36.497Z,5.77
2023-05-20T10:33:32.721Z,14.00
2023-05-20T10:36:09.612Z,6.63
2023-05-20T10:39:04.989Z,5.93
2023-05-20T10:41:37.644Z,4.80
2023-05-20T10:44:10.421Z,7.17
2023-05-20T10:47:16.846Z,5.60
2023-05-20T10:50:30.755Z,5.30
2023-05-20T10:53:25.669Z,5.40
2023-05-20T10:56:29.647Z,5.50
2023-05-20T10:59:03.618Z,5.37
2023-05-20T11:01:52.291Z,7.53
2023-05-20T11:04:47.394Z,5.27
2023-05-20T11:07:40.896Z,5.63
2023-05-20T11:10:16.243Z,6.03
2023-05-20T11:12:58.575Z,5.20
2023-05-20T11:15:34.289Z,7.20
2023-05-20T11:18:08.652Z,5.20
2023-05-20T11:20:46.644Z,5.53
2023-05-20T11:23:28.794Z,11.13
2023-05-20T11:26:10.168Z,5.27
2023-05-20T11:28:43.252Z,6.47
2023-05-20T11:31:31.286Z,6.00
2023-05-20T11:34:05.590Z,4.73
2023-05-20T11:36:44.368Z,7.67
2023-05-20T11:39:50.060Z,5.90
2023-05-20T11:42:33.778Z,5.67
2023-05-20T11:45:07.030Z,6.63
2023-05-20T11:48:09.618Z,4.60
2023-05-20T11:50:43.578Z,4.87
2023-05-20T11:53:37.955Z,4.57
2023-05-20T11:56:22.590Z,6.50
2023-05-20T11:58:55.183Z,5.53
2023-05-20T12:01:30.843Z,5.83
2023-05-20T12:04:09.038Z,6.10
2023-05-20T12:06:40.137Z,5.40
2023-05-20T12:09:11.541Z,5.40
2023-05-20T12:11:53.867Z,5.17
2023-05-20T12:14:32.307Z,4.90
2023-05-20T12:17:14.647Z,4.87
2023-05-20T12:19:52.486Z,5.53
2023-05-20T12:22:36.299Z,5.17
2023-05-20T12:25:16.360Z,5.30
2023-05-20T12:28:27.990Z,5.40
2023-05-20T12:31:08.909Z,5.27
2023-05-20T12:33:54.822Z,5.10
2023-05-20T12:36:34.213Z,5.00
2023-05-20T12:39:15.486Z,4.57
2023-05-20T12:42:00.180Z,4.93
2023-05-20T12:44:35.660Z,5.37
2023-05-20T12:47:08.572Z,4.60
2023-05-20T12:49:45.821Z,4.67
2023-05-20T12:52:26.577Z,5.47
2023-05-20T12:55:07.485Z,5.00
2023-05-20T12:57:42.570Z,6.43
2023-05-20T13:00:32.018Z,6.30
2023-05-20T13:03:14.603Z,5.73
2023-05-20T13:05:51.265Z,19.10
2023-05-20T13:08:26.492Z,8.77
2023-05-20T13:10:59.475Z,7.77
2023-05-20T13:13:45.469Z,5.43
2023-05-20T13:16:22.391Z,5.27
2023-05-20T13:18:55.611Z,4.97
2023-05-20T13:21:44.113Z,5.27
2023-05-20T13:24:28.328Z,5.13
2023-05-20T13:27:19.237Z,5.33
2023-05-20T13:29:56.465Z,4.97
2023-05-20T13:32:33.477Z,7.77
2023-05-20T13:35:18.891Z,4.97
2023-05-20T13:38:02.123Z,6.10
2023-05-20T13:40:40.307Z,5.70
2023-05-20T13:43:25.403Z,6.60
2023-05-20T13:46:05.885Z,6.43
2023-05-20T13:49:07.669Z,4.40
2023-05-20T13:51:46.460Z,4.47
2023-05-20T13:54:55.511Z,4.60
2023-05-20T13:57:56.269Z,4.60
2023-05-20T14:00:52.496Z,4.67
2023-05-20T14:03:52.227Z,8.53
2023-05-20T14:06:49.021Z,6.57
2023-05-20T14:09:36.834Z,7.63
2023-05-20T14:12:23.405Z,5.30
2023-05-20T14:15:11.477Z,5.93
2023-05-20T14:17:54.123Z,5.10
2023-05-20T14:20:35.137Z,6.23
2023-05-20T14:23:47.636Z,5.00
2023-05-20T14:26:41.701Z,4.90
2023-05-20T14:29:18.372Z,4.80
2023-05-20T14:32:17.249Z,8.30
2023-05-20T14:35:07.624Z,4.97
2023-05-20T14:38:13.746Z,5.50
2023-05-20T14:40:53.358Z,5.20
2023-05-20T14:43:39.869Z,5.60
2023-05-20T14:46:12.472Z,5.43
2023-05-20T14:48:59.844Z,4.87
2023-05-20T14:51:34.113Z,4.87
2023-05-20T14:54:25.327Z,5.53
2023-05-20T14:57:16.210Z,5.23
2023-05-20T14:59:51.269Z,8.00
2023-05-20T15:02:36.990Z,5.47
2023-05-20T15:05:18.745Z,5.60
2023-05-20T15:08:01.079Z,6.50
2023-05-20T15:10:46.538Z,5.53
2023-05-20T15:14:13.558Z,5.53
2023-05-20T15:17:03.117Z,5.83
2023-05-20T15:19:45.298Z,6.70
2023-05-20T15:22:29.758Z,6.03
2023-05-20T15:25:11.526Z,5.67
2023-05-20T15:27:45.116Z,6.57
2023-05-20T15:30:32.980Z,6.37
2023-05-20T15:33:18.090Z,5.63
2023-05-20T15:36:09.565Z,5.83
2023-05-20T15:38:48.972Z,5.77
2023-05-20T15:41:49.651Z,6.83
2023-05-20T15:44:44.234Z,5.83
2023-05-20T15:47:45.932Z,7.77
2023-05-20T15:50:41.405Z,6.43
2023-05-20T15:53:23.509Z,6.50
2023-05-20T15:56:07.322Z,6.20
2023-05-20T15:58:50.449Z,5.97
2023-05-20T16:01:30.686Z,6.50
2023-05-20T16:04:12.018Z,6.17
2023-05-20T16:07:07.327Z,6.23
2023-05-20T16:09:52.027Z,6.40
2023-05-20T16:12:45.242Z,6.40
2023-05-20T16:15:27.913Z,6.87
2023-05-20T16:17:58.420Z,6.80
2023-05-20T16:20:59.547Z,6.63
2023-05-20T16:23:55.022Z,6.40
2023-05-20T16:27:02.179Z,6.80
2023-05-20T16:29:53.712Z,7.13
2023-05-20T16:32:28.388Z,6.33
2023-05-20T16:35:25.489Z,6.00
2023-05-20T16:38:27.088Z,6.60
2023-05-20T16:41:03.181Z,6.73
2023-05-20T16:43:44.919Z,6.90
2023-05-20T16:46:23.414Z,7.60
2023-05-20T16:48:59.940Z,5.93
2023-05-20T16:51:38.288Z,6.03
2023-05-20T16:54:30.057Z,6.20
2023-05-20T16:57:19.232Z,5.90
2023-05-20T17:00:16.885Z,7.33
2023-05-20T17:02:48.480Z,6.60
2023-05-20T17:05:53.182Z,11.83
2023-05-20T17:08:41.032Z,6.97
2023-05-20T17:11:23.169Z,8.03
2023-05-20T17:14:13.242Z,7.13
2023-05-20T17:16:51.933Z,6.47
2023-05-20T17:19:27.052Z,7.07
2023-05-20T17:22:02.947Z,6.87
2023-05-20T17:24:43.965Z,7.17
2023-05-20T17:27:33.570Z,8.50
2023-05-20T17:30:30.054Z,7.33
2023-05-20T17:33:26.805Z,7.40
2023-05-20T17:36:20.032Z,7.67
2023-05-20T17:39:10.079Z,7.27
2023-05-20T17:41:51.834Z,7.47
2023-05-20T17:44:28.612Z,6.90
2023-05-20T17:47:07.683Z,6.50
2023-05-20T17:49:49.144Z,8.13
2023-05-20T17:52:20.035Z,8.17
2023-05-20T17:54:57.380Z,7.80
2023-05-20T17:57:33.465Z,7.97
2023-05-20T18:00:29.592Z,9.30
2023-05-20T18:03:06.390Z,8.90
2023-05-20T18:06:02.722Z,8.27
2023-05-20T18:08:43.194Z,9.03
2023-05-20T18:11:33.976Z,7.77
2023-05-20T18:14:23.166Z,9.47
2023-05-20T18:17:39.554Z,8.70
2023-05-20T18:20:12.286Z,9.37
2023-05-20T18:23:01.195Z,7.90
2023-05-20T18:25:48.320Z,8.70
2023-05-20T18:28:21.590Z,13.13
2023-05-20T18:31:04.212Z,9.07
2023-05-20T18:33:51.632Z,9.83
2023-05-20T18:36:36.692Z,9.47
2023-05-20T18:39:24.769Z,8.83
2023-05-20T18:42:10.024Z,10.13
2023-05-20T18:44:50.799Z,10.03
2023-05-20T18:47:42.551Z,9.03
2023-05-20T18:50:41.882Z,9.07
2023-05-20T18:53:20.881Z,10.13
2023-05-20T18:56:03.702Z,10.37
2023-05-20T18:58:41.324Z,9.57
2023-05-20T19:01:24.530Z,9.80
2023-05-20T19:04:19.478Z,10.23
2023-05-20T19:07:37.753Z,9.97
2023-05-20T19:10:20.260Z,10.57
2023-05-20T19:13:03.936Z,10.07
2023-05-20T19:15:43.025Z,10.10
2023-05-20T19:18:14.520Z,10.30
2023-05-20T19:20:46.869Z,10.80
2023-05-20T19:23:36.360Z,10.63
2023-05-20T19:26:23.709Z,10.97
2023-05-20T19:29:05.560Z,11.43
2023-05-20T19:31:48.180Z,11.00
2023-05-20T19:34:32.684Z,11.73
2023-05-20T19:37:11.778Z,12.00
2023-05-20T19:39:53.835Z,11.93
2023-05-20T19:42:26.691Z,12.03
2023-05-20T19:45:11.936Z,11.30
2023-05-20T19:47:50.854Z,11.83
2023-05-20T19:50:42.508Z,12.43
2023-05-20T19:53:30.517Z,12.53
2023-05-20T19:56:30.104Z,13.10
2023-05-20T19:59:10.581Z,13.43
2023-05-20T20:01:52.165Z,12.90
2023-05-20T20:04:33.897Z,12.33
2023-05-20T20:07:09.524Z,12.37
2023-05-20T20:10:06.848Z,11.93
2023-05-20T20:12:59.539Z,11.83
2023-05-20T20:15:52.102Z,12.83
2023-05-20T20:18:59.090Z,12.73
2023-05-20T20:21:36.571Z,13.37
2023-05-20T20:24:30.146Z,14.53
2023-05-20T20:27:24.244Z,14.50
2023-05-20T20:30:08.520Z,12.83
2023-05-20T20:33:04.704Z,16.40
2023-05-20T20:35:40.674Z,13.63
2023-05-20T20:38:22.833Z,13.97
2023-05-20T20:41:00.232Z,14.13
2023-05-20T20:43:44.637Z,14.03
2023-05-20T20:46:18.655Z,14.17
2023-05-20T20:48:59.791Z,13.57
2023-05-20T20:51:30.099Z,14.47
2023-05-20T20:54:34.876Z,13.77
2023-05-20T20:57:24.342Z,15.87
2023-05-20T21:00:08.985Z,13.07
2023-05-20T21:02:50.383Z,14.90
2023-05-20T21:05:39.255Z,15.80
2023-05-20T21:08:33.307Z,14.30
2023-05-20T21:11:15.001Z,13.77
2023-05-20T21:13:55.896Z,15.27
2023-05-20T21:16:47.366Z,14.57
2023-05-20T21:19:28.892Z,14.90
2023-05-20T21:22:09.655Z,15.63
2023-05-20T21:24:46.065Z,13.97
2023-05-20T21:27:25.953Z,13.50
2023-05-20T21:30:01.760Z,16.80
2023-05-20T21:33:12.367Z,14.07
2023-05-20T21:35:46.398Z,14.43
2023-05-20T21:38:41.129Z,16.57
2023-05-20T21:41:41.780Z,14.27
2023-05-20T21:44:17.651Z,13.27
2023-05-20T21:46:49.147Z,13.77
2023-05-20T21:49:48.620Z,14.27
2023-05-20T21:52:33.421Z,14.40
2023-05-20T21:55:23.888Z,15.13
2023-05-20T21:58:05.073Z,16.63
2023-05-20T22:00:48.350Z,14.13
2023-05-20T22:03:25.633Z,14.40
2023-05-20T22:06:13.435Z,15.37
2023-05-20T22:08:56.279Z,17.30
2023-05-20T22:11:29.136Z,15.07
2023-05-20T22:14:49.081Z,15.83
2023-05-20T22:17:25.486Z,13.63
2023-05-20T22:20:17.847Z,15.50
2023-05-20T22:23:04.484Z,15.10
2023-05-20T22:26:05.270Z,13.70
2023-05-20T22:28:35.792Z,15.70
2023-05-20T22:31:23.992Z,13.97
2023-05-20T22:34:05.144Z,13.87
2023-05-20T22:36:54.903Z,15.17
2023-05-20T22:39:34.354Z,14.47
2023-05-20T22:42:24.858Z,14.37
2023-05-20T22:45:18.595Z,13.83
2023-05-20T22:47:59.044Z,17.17
2023-05-20T22:50:54.932Z,14.13
2023-05-20T22:53:27.381Z,15.33
2023-05-20T22:56:19.516Z,14.63
2023-05-20T22:59:21.765Z,14.07
2023-05-20T23:02:02.716Z,14.70
2023-05-20T23:04:35.421Z,15.40
2023-05-20T23:07:21.286Z,15.90
2023-05-20T23:09:57.359Z,15.57
2023-05-20T23:12:43.576Z,14.57
2023-05-20T23:15:39.887Z,14.53
2023-05-20T23:18:34.896Z,14.63
2023-05-20T23:21:09.545Z,16.10
2023-05-20T23:23:58.460Z,17.53
2023-05-20T23:27:06.478Z,14.30
2023-05-20T23:29:54.149Z,15.60
2023-05-20T23:33:04.038Z,15.40
2023-05-20T23:35:47.880Z,14.57
2023-05-20T23:38:35.979Z,14.90
2023-05-20T23:41:08.378Z,17.67
2023-05-20T23:43:45.028Z,18.50
2023-05-20T23:46:32.581Z,14.37
2023-05-20T23:49:25.986Z,15.80
2023-05-20T23:52:16.435Z,17.93
2023-05-20T23:55:02.237Z,15.60
2023-05-20T23:57:45.110Z,16.03
